createdAt,value
2018-01-20T00:01:19.262Z,76.30
2018-01-20T00:03:46.699Z,76.30
2018-01-20T00:06:14.184Z,75.20
2018-01-20T00:08:41.618Z,74.70
2018-01-20T00:11:24.053Z,74.30
2018-01-20T00:13:52.278Z,75.30
2018-01-20T00:16:20.702Z,74.30
2018-01-20T00:18:48.977Z,74.70
2018-01-20T00:21:16.843Z,74.50
2018-01-20T00:23:45.072Z,75.00
2018-01-20T00:26:18.300Z,74.90
2018-01-20T00:28:45.758Z,76.10
2018-01-20T00:31:13.433Z,76.20
2018-01-20T00:33:41.643Z,75.50
2018-01-20T00:36:09.087Z,75.40
2018-01-20T00:38:36.551Z,75.20
2018-01-20T00:41:03.979Z,75.30
2018-01-20T00:43:32.204Z,75.30
2018-01-20T00:45:59.662Z,74.50
2018-01-20T00:48:27.107Z,74.40
2018-01-20T00:50:55.123Z,74.20
2018-01-20T00:53:22.558Z,74.90
2018-01-20T00:55:50.681Z,74.60
2018-01-20T00:58:18.869Z,74.50
2018-01-20T01:00:46.309Z,74.40
2018-01-20T01:03:13.751Z,74.90
2018-01-20T01:05:41.967Z,74.40
2018-01-20T01:08:09.423Z,74.40
2018-01-20T01:10:36.875Z,74.00
2018-01-20T01:13:04.333Z,73.60
2018-01-20T01:15:31.763Z,73.70
2018-01-20T01:17:59.220Z,74.20
2018-01-20T01:20:27.418Z,74.90
2018-01-20T01:22:55.015Z,74.80
2018-01-20T01:25:22.459Z,74.30
2018-01-20T01:27:49.900Z,74.80
2018-01-20T01:30:17.337Z,75.00
2018-01-20T01:32:45.175Z,74.80
2018-01-20T01:35:13.386Z,74.00
2018-01-20T01:37:40.836Z,95.40
2018-01-20T01:40:08.282Z,74.90
2018-01-20T01:42:36.481Z,74.70
2018-01-20T01:45:03.939Z,74.90
2018-01-20T01:47:31.410Z,74.60
2018-01-20T01:49:58.865Z,74.90
2018-01-20T01:52:26.308Z,74.90
2018-01-20T01:54:53.754Z,75.30
2018-01-20T01:57:21.191Z,75.30
2018-01-20T01:59:48.670Z,75.30
2018-01-20T02:02:16.095Z,75.50
2018-01-20T02:04:44.302Z,76.10
2018-01-20T02:07:11.739Z,76.00
2018-01-20T02:09:39.178Z,76.30
2018-01-20T02:12:07.386Z,76.30
2018-01-20T02:14:34.815Z,76.20
2018-01-20T02:17:02.254Z,75.40
2018-01-20T02:19:30.819Z,76.30
2018-01-20T02:21:58.244Z,76.00
2018-01-20T02:24:25.667Z,76.70
2018-01-20T02:26:53.119Z,76.30
2018-01-20T02:29:21.323Z,78.10
2018-01-20T02:31:48.767Z,78.20
2018-01-20T02:34:16.213Z,99.20
2018-01-20T02:36:44.058Z,79.90
2018-01-20T02:39:12.267Z,82.60
2018-01-20T02:41:39.709Z,81.70
2018-01-20T02:44:07.141Z,81.50
2018-01-20T02:46:34.581Z,81.10
2018-01-20T02:49:02.020Z,82.00
2018-01-20T02:51:29.454Z,82.40
2018-01-20T02:53:56.911Z,81.90
2018-01-20T02:56:24.343Z,81.70
2018-01-20T02:58:51.791Z,80.20
2018-01-20T03:01:20.000Z,79.60
2018-01-20T03:03:47.440Z,79.60
2018-01-20T03:06:14.884Z,79.30
2018-01-20T03:08:43.091Z,78.80
2018-01-20T03:11:10.523Z,78.70
2018-01-20T03:13:37.955Z,78.50
2018-01-20T03:16:06.179Z,77.70
2018-01-20T03:18:33.619Z,77.60
2018-01-20T03:21:01.069Z,77.50
2018-01-20T03:23:28.507Z,77.60
2018-01-20T03:25:56.707Z,76.30
2018-01-20T03:28:24.159Z,75.90
2018-01-20T03:30:51.605Z,75.70
2018-01-20T03:33:19.070Z,94.00
2018-01-20T03:35:46.504Z,99.30
2018-01-20T03:38:14.730Z,75.50
2018-01-20T03:40:43.303Z,75.00
2018-01-20T03:43:10.739Z,75.00
2018-01-20T03:45:38.171Z,74.80
2018-01-20T03:48:06.383Z,75.50
2018-01-20T03:50:33.983Z,74.60
2018-01-20T03:53:01.435Z,74.50
2018-01-20T03:55:28.876Z,73.10
2018-01-20T03:57:56.311Z,73.40
2018-01-20T04:00:23.789Z,74.30
2018-01-20T04:02:51.219Z,75.00
2018-01-20T04:05:18.667Z,75.20
2018-01-20T04:07:46.091Z,74.60
2018-01-20T04:10:13.537Z,72.90
2018-01-20T04:12:40.967Z,72.70
2018-01-20T04:15:08.403Z,73.30
2018-01-20T04:17:35.848Z,73.60
2018-01-20T04:20:03.289Z,74.40
2018-01-20T04:22:31.495Z,73.80
2018-01-20T04:24:58.935Z,73.70
2018-01-20T04:27:26.367Z,72.70
2018-01-20T04:29:54.572Z,72.30
2018-01-20T04:32:22.013Z,72.10
2018-01-20T04:34:50.213Z,72.50
2018-01-20T04:37:18.047Z,71.20
2018-01-20T04:39:45.879Z,71.30
2018-01-20T04:42:14.831Z,71.50
2018-01-20T04:44:42.266Z,71.40
2018-01-20T04:47:09.708Z,71.40
2018-01-20T04:49:37.929Z,70.50
2018-01-20T04:52:05.363Z,70.40
2018-01-20T04:54:32.803Z,70.30
2018-01-20T04:57:00.242Z,70.20
2018-01-20T04:59:27.675Z,69.90
2018-01-20T05:01:55.111Z,70.60
2018-01-20T05:04:22.554Z,71.10
2018-01-20T05:06:49.990Z,70.60
2018-01-20T05:09:17.433Z,71.10
2018-01-20T05:11:45.631Z,70.30
2018-01-20T05:14:13.068Z,70.10
2018-01-20T05:16:41.273Z,70.50
2018-01-20T05:19:08.710Z,70.50
2018-01-20T05:21:36.150Z,70.10
2018-01-20T05:24:04.347Z,70.50
2018-01-20T05:26:32.680Z,70.30
2018-01-20T05:29:00.128Z,70.20
2018-01-20T05:31:27.563Z,69.80
2018-01-20T05:33:55.245Z,69.70
2018-01-20T05:36:22.693Z,80.00
2018-01-20T05:38:50.528Z,71.50
2018-01-20T05:41:17.977Z,69.60
2018-01-20T05:43:45.803Z,70.00
2018-01-20T05:46:13.242Z,70.70
2018-01-20T05:48:40.687Z,71.10
2018-01-20T05:51:08.152Z,70.80
2018-01-20T05:53:36.343Z,70.90
2018-01-20T05:56:03.772Z,70.90
2018-01-20T05:58:31.212Z,71.30
2018-01-20T06:00:58.642Z,71.60
2018-01-20T06:03:26.079Z,71.40
2018-01-20T06:05:54.292Z,71.60
2018-01-20T06:08:21.733Z,71.60
2018-01-20T06:10:49.168Z,71.90
2018-01-20T06:13:17.370Z,71.70
2018-01-20T06:15:44.821Z,71.60
2018-01-20T06:18:12.246Z,71.60
2018-01-20T06:20:39.742Z,70.90
2018-01-20T06:23:07.169Z,70.80
2018-01-20T06:25:35.379Z,70.80
2018-01-20T06:28:02.819Z,70.80
2018-01-20T06:30:30.271Z,71.10
2018-01-20T06:32:57.704Z,69.90
2018-01-20T06:35:25.150Z,69.90
2018-01-20T06:37:52.590Z,70.10
2018-01-20T06:40:20.038Z,72.50
2018-01-20T06:42:47.479Z,70.40
2018-01-20T06:45:15.694Z,69.40
2018-01-20T06:47:43.137Z,70.10
2018-01-20T06:50:10.577Z,68.80
2018-01-20T06:52:38.019Z,69.30
2018-01-20T06:55:05.471Z,68.30
2018-01-20T06:57:32.907Z,68.90
2018-01-20T07:00:01.120Z,69.20
2018-01-20T07:02:28.559Z,69.10
2018-01-20T07:04:56.021Z,69.70
2018-01-20T07:07:23.476Z,69.90
2018-01-20T07:09:50.911Z,69.90
2018-01-20T07:12:19.110Z,69.50
2018-01-20T07:14:46.991Z,69.40
2018-01-20T07:17:14.441Z,69.90
2018-01-20T07:19:41.883Z,69.80
2018-01-20T07:22:09.315Z,69.70
2018-01-20T07:24:36.753Z,70.10
2018-01-20T07:27:04.193Z,70.80
2018-01-20T07:29:31.660Z,70.40
2018-01-20T07:31:59.068Z,70.00
2018-01-20T07:34:26.501Z,70.20
2018-01-20T07:36:53.940Z,88.10
2018-01-20T07:39:22.143Z,71.50
2018-01-20T07:41:49.600Z,71.30
2018-01-20T07:44:17.439Z,71.50
2018-01-20T07:46:45.694Z,72.30
2018-01-20T07:49:13.135Z,71.50
2018-01-20T07:51:40.582Z,72.40
2018-01-20T07:54:08.028Z,72.60
2018-01-20T07:56:35.472Z,72.70
2018-01-20T07:59:02.903Z,72.10
2018-01-20T08:01:33.789Z,72.20
2018-01-20T08:04:07.657Z,71.70
2018-01-20T08:06:40.532Z,70.60
2018-01-20T08:09:13.238Z,70.80
2018-01-20T08:11:43.822Z,70.70
2018-01-20T08:14:16.083Z,71.00
2018-01-20T08:16:44.353Z,71.40
2018-01-20T08:19:14.549Z,71.40
2018-01-20T08:21:42.830Z,72.00
2018-01-20T08:24:10.276Z,71.90
2018-01-20T08:26:37.733Z,71.60
2018-01-20T08:29:05.271Z,71.20
2018-01-20T08:31:33.493Z,70.70
2018-01-20T08:34:00.940Z,70.50
2018-01-20T08:36:28.821Z,70.30
2018-01-20T08:38:57.036Z,70.40
2018-01-20T08:41:24.508Z,70.40
2018-01-20T08:43:52.018Z,69.50
2018-01-20T08:46:20.211Z,70.20
2018-01-20T08:48:47.660Z,68.00
2018-01-20T08:51:15.510Z,68.10
2018-01-20T08:53:43.348Z,67.60
2018-01-20T08:56:11.190Z,68.30
2018-01-20T08:58:39.396Z,69.10
2018-01-20T09:01:06.829Z,69.80
2018-01-20T09:03:34.275Z,70.20
2018-01-20T09:06:01.720Z,70.30
2018-01-20T09:08:29.154Z,69.10
2018-01-20T09:10:57.371Z,67.60
2018-01-20T09:13:24.817Z,67.50
2018-01-20T09:15:52.263Z,67.50
2018-01-20T09:18:19.704Z,67.40
2018-01-20T09:20:47.142Z,66.10
2018-01-20T09:23:15.352Z,66.10
2018-01-20T09:25:42.806Z,66.00
2018-01-20T09:28:10.251Z,65.40
2018-01-20T09:30:37.825Z,64.10
2018-01-20T09:33:05.263Z,62.50
2018-01-20T09:35:32.710Z,65.20
2018-01-20T09:38:00.920Z,70.40
2018-01-20T09:40:28.357Z,70.30
2018-01-20T09:42:55.798Z,70.70
2018-01-20T09:45:24.011Z,70.90
2018-01-20T09:47:51.452Z,82.70
2018-01-20T09:50:18.887Z,68.80
2018-01-20T09:52:47.090Z,69.10
2018-01-20T09:55:14.583Z,92.50
2018-01-20T09:57:42.030Z,85.30
2018-01-20T10:00:09.870Z,67.30
2018-01-20T10:02:37.315Z,67.90
2018-01-20T10:05:04.804Z,67.60
2018-01-20T10:07:32.328Z,67.50
2018-01-20T10:09:59.819Z,66.30
2018-01-20T10:12:32.498Z,66.20
2018-01-20T10:15:00.767Z,66.90
2018-01-20T10:17:28.216Z,66.70
2018-01-20T10:19:55.654Z,66.60
2018-01-20T10:22:23.108Z,65.30
2018-01-20T10:24:50.552Z,63.00
2018-01-20T10:27:17.988Z,64.00
2018-01-20T10:29:46.195Z,63.50
2018-01-20T10:32:13.637Z,63.40
2018-01-20T10:34:41.132Z,63.20
2018-01-20T10:37:08.575Z,62.90
2018-01-20T10:39:36.026Z,63.60
2018-01-20T10:42:03.475Z,63.40
2018-01-20T10:44:30.925Z,63.40
2018-01-20T10:46:58.371Z,64.40
2018-01-20T10:49:27.496Z,63.80
2018-01-20T10:51:55.360Z,63.70
2018-01-20T10:54:22.797Z,63.70
2018-01-20T10:56:50.247Z,94.80
2018-01-20T10:59:18.478Z,63.80
2018-01-20T11:01:46.327Z,65.00
2018-01-20T11:04:13.783Z,65.60
2018-01-20T11:06:41.237Z,65.90
2018-01-20T11:09:08.679Z,65.90
2018-01-20T11:11:36.147Z,65.30
2018-01-20T11:14:03.611Z,65.10
2018-01-20T11:16:31.835Z,62.30
2018-01-20T11:19:00.050Z,62.40
2018-01-20T11:21:27.488Z,61.60
2018-01-20T11:23:54.927Z,61.70
2018-01-20T11:26:23.148Z,61.50
2018-01-20T11:28:50.606Z,61.40
2018-01-20T11:31:18.080Z,61.90
2018-01-20T11:33:45.511Z,61.30
2018-01-20T11:36:12.960Z,61.10
2018-01-20T11:38:40.405Z,60.10
2018-01-20T11:41:07.860Z,59.90
2018-01-20T11:43:35.307Z,59.30
2018-01-20T11:46:03.511Z,59.70
2018-01-20T11:48:30.961Z,59.70
2018-01-20T11:50:58.392Z,57.80
2018-01-20T11:53:25.839Z,68.70
2018-01-20T11:55:54.048Z,57.30
2018-01-20T11:58:21.884Z,56.80
2018-01-20T12:00:50.130Z,55.90
2018-01-20T12:03:17.579Z,55.70
2018-01-20T12:05:45.417Z,55.70
2018-01-20T12:08:12.850Z,56.10
2018-01-20T12:10:40.283Z,55.90
2018-01-20T12:13:08.484Z,55.90
2018-01-20T12:15:35.936Z,55.90
2018-01-20T12:18:03.389Z,56.60
2018-01-20T12:20:31.592Z,56.00
2018-01-20T12:22:59.049Z,56.00
2018-01-20T12:25:26.491Z,56.30
2018-01-20T12:27:53.948Z,56.40
2018-01-20T12:30:21.386Z,56.40
2018-01-20T12:32:48.827Z,55.40
2018-01-20T12:35:17.029Z,55.30
2018-01-20T12:37:44.476Z,55.20
2018-01-20T12:40:12.672Z,55.80
2018-01-20T12:42:40.114Z,55.80
2018-01-20T12:45:07.560Z,55.20
2018-01-20T12:47:34.999Z,55.10
2018-01-20T12:50:03.217Z,55.20
2018-01-20T12:52:30.659Z,53.90
2018-01-20T12:54:58.233Z,62.90
2018-01-20T12:57:25.771Z,53.80
2018-01-20T12:59:53.611Z,51.60
2018-01-20T13:02:21.580Z,50.90
2018-01-20T13:04:49.529Z,50.80
2018-01-20T13:07:17.827Z,52.40
2018-01-20T13:09:46.115Z,51.60
2018-01-20T13:12:14.348Z,53.60
2018-01-20T13:14:41.875Z,53.50
2018-01-20T13:17:09.387Z,53.90
2018-01-20T13:19:37.638Z,51.90
2018-01-20T13:22:05.166Z,51.80
2018-01-20T13:24:32.657Z,52.10
2018-01-20T13:27:00.156Z,54.10
2018-01-20T13:29:28.383Z,53.30
2018-01-20T13:31:56.328Z,53.30
2018-01-20T13:34:23.836Z,53.70
2018-01-20T13:36:51.304Z,53.60
2018-01-20T13:39:18.812Z,53.00
2018-01-20T13:41:46.289Z,52.90
2018-01-20T13:44:13.739Z,53.60
2018-01-20T13:46:41.183Z,54.40
2018-01-20T13:49:08.634Z,54.10
2018-01-20T13:51:36.079Z,53.60
2018-01-20T13:54:03.523Z,55.70
2018-01-20T13:56:31.227Z,80.00
2018-01-20T13:58:58.711Z,56.60
2018-01-20T14:01:26.115Z,58.10
2018-01-20T14:03:53.582Z,57.10
2018-01-20T14:06:21.042Z,57.20
2018-01-20T14:08:48.482Z,57.70
2018-01-20T14:11:15.931Z,58.00
2018-01-20T14:13:43.374Z,57.00
2018-01-20T14:16:10.832Z,57.40
2018-01-20T14:18:38.459Z,57.40
2018-01-20T14:21:05.935Z,58.10
2018-01-20T14:23:34.142Z,57.90
2018-01-20T14:26:01.584Z,57.80
2018-01-20T14:28:29.022Z,56.60
2018-01-20T14:30:57.228Z,58.10
2018-01-20T14:33:24.682Z,58.00
2018-01-20T14:35:52.122Z,57.90
2018-01-20T14:38:19.562Z,57.90
2018-01-20T14:40:47.773Z,57.90
2018-01-20T14:43:15.223Z,57.80
2018-01-20T14:45:42.712Z,58.20
2018-01-20T14:48:10.295Z,58.00
2018-01-20T14:50:38.459Z,58.30
2018-01-20T14:53:05.912Z,59.10
2018-01-20T14:55:33.376Z,58.00
2018-01-20T14:58:00.824Z,84.90
2018-01-20T15:00:28.295Z,55.70
2018-01-20T15:02:55.751Z,55.80
2018-01-20T15:05:23.195Z,55.10
2018-01-20T15:07:51.043Z,55.10
2018-01-20T15:10:19.255Z,53.00
2018-01-20T15:12:47.482Z,53.50
2018-01-20T15:15:14.940Z,53.50
2018-01-20T15:17:42.387Z,54.80
2018-01-20T15:20:09.836Z,55.80
2018-01-20T15:22:37.287Z,51.50
2018-01-20T15:25:04.719Z,50.80
2018-01-20T15:27:32.944Z,52.50
2018-01-20T15:30:00.430Z,52.40
2018-01-20T15:32:28.641Z,50.70
2018-01-20T15:34:56.089Z,50.70
2018-01-20T15:37:23.535Z,51.30
2018-01-20T15:39:51.756Z,52.80
2018-01-20T15:42:19.249Z,52.70
2018-01-20T15:44:46.689Z,51.60
2018-01-20T15:47:14.148Z,52.80
2018-01-20T15:49:41.599Z,53.70
2018-01-20T15:52:09.062Z,54.40
2018-01-20T15:54:36.527Z,54.70
2018-01-20T15:57:03.971Z,55.20
2018-01-20T15:59:31.425Z,54.80
2018-01-20T16:01:58.872Z,53.50
2018-01-20T16:04:26.333Z,54.70
2018-01-20T16:06:54.594Z,55.70
2018-01-20T16:09:22.032Z,57.80
2018-01-20T16:11:49.500Z,56.70
2018-01-20T16:14:16.940Z,53.50
2018-01-20T16:16:44.437Z,55.00
2018-01-20T16:19:11.876Z,57.00
2018-01-20T16:21:39.386Z,58.40
2018-01-20T16:24:06.817Z,58.90
2018-01-20T16:26:35.867Z,53.20
2018-01-20T16:29:03.332Z,53.20
2018-01-20T16:31:30.998Z,54.90
2018-01-20T16:33:59.130Z,54.70
2018-01-20T16:36:26.560Z,55.70
2018-01-20T16:38:54.006Z,54.60
2018-01-20T16:41:21.494Z,55.50
2018-01-20T16:43:48.970Z,55.60
2018-01-20T16:46:17.224Z,53.60
2018-01-20T16:48:44.642Z,53.60
2018-01-20T16:51:12.109Z,54.20
2018-01-20T16:53:39.564Z,53.40
2018-01-20T16:56:07.026Z,54.10
2018-01-20T16:58:34.471Z,55.60
2018-01-20T17:01:02.217Z,56.30
2018-01-20T17:03:29.716Z,55.40
2018-01-20T17:05:57.141Z,56.80
2018-01-20T17:08:25.015Z,57.80
2018-01-20T17:10:52.475Z,59.00
2018-01-20T17:13:20.323Z,56.10
2018-01-20T17:15:47.826Z,55.10
2018-01-20T17:18:15.259Z,57.10
2018-01-20T17:20:42.707Z,57.10
2018-01-20T17:23:10.155Z,58.40
2018-01-20T17:25:37.603Z,57.90
2018-01-20T17:28:05.105Z,58.40
2018-01-20T17:30:32.558Z,61.50
2018-01-20T17:32:59.987Z,62.90
2018-01-20T17:35:27.477Z,63.20
2018-01-20T17:37:54.909Z,64.00
2018-01-20T17:40:22.402Z,64.60
2018-01-20T17:42:49.838Z,64.70
2018-01-20T17:45:17.285Z,66.00
2018-01-20T17:47:44.785Z,65.10
2018-01-20T17:50:13.043Z,65.60
2018-01-20T17:52:40.531Z,65.60
2018-01-20T17:55:07.955Z,66.00
2018-01-20T17:57:36.187Z,66.50
2018-01-20T18:00:03.688Z,66.80
2018-01-20T18:02:31.129Z,85.70
2018-01-20T18:04:58.586Z,68.00
2018-01-20T18:07:26.414Z,68.40
2018-01-20T18:09:53.872Z,93.30
2018-01-20T18:12:21.767Z,69.20
2018-01-20T18:14:49.658Z,73.40
2018-01-20T18:17:17.133Z,70.80
2018-01-20T18:19:45.386Z,71.50
2018-01-20T18:22:12.826Z,71.50
2018-01-20T18:24:40.288Z,72.10
2018-01-20T18:27:07.743Z,72.40
2018-01-20T18:29:35.204Z,73.60
2018-01-20T18:32:02.661Z,74.90
2018-01-20T18:34:30.130Z,75.80
2018-01-20T18:36:57.867Z,76.00
2018-01-20T18:39:25.320Z,76.10
2018-01-20T18:41:52.762Z,76.50
2018-01-20T18:44:20.218Z,76.90
2018-01-20T18:46:47.702Z,77.30
2018-01-20T18:49:15.131Z,77.30
2018-01-20T18:51:42.563Z,78.00
2018-01-20T18:54:10.000Z,78.40
2018-01-20T18:56:38.208Z,78.90
2018-01-20T18:59:05.656Z,78.70
2018-01-20T19:01:33.100Z,85.00
2018-01-20T19:04:00.586Z,78.50
2018-01-20T19:06:28.054Z,78.30
2018-01-20T19:08:56.786Z,79.30
2018-01-20T19:11:25.703Z,78.30
2018-01-20T19:13:53.156Z,96.50
2018-01-20T19:16:20.661Z,77.50
2018-01-20T19:18:48.148Z,78.10
2018-01-20T19:21:15.638Z,79.00
2018-01-20T19:23:43.059Z,79.60
2018-01-20T19:26:11.276Z,80.70
2018-01-20T19:28:38.793Z,80.60
2018-01-20T19:31:06.230Z,81.20
2018-01-20T19:33:33.680Z,81.50
2018-01-20T19:36:01.145Z,82.20
2018-01-20T19:38:28.622Z,82.20
2018-01-20T19:40:57.031Z,82.50
2018-01-20T19:43:24.917Z,82.40
2018-01-20T19:45:52.372Z,82.70
2018-01-20T19:48:19.802Z,81.60
2018-01-20T19:50:47.248Z,82.30
2018-01-20T19:53:15.502Z,82.50
2018-01-20T19:55:42.980Z,82.40
2018-01-20T19:58:11.215Z,82.50
2018-01-20T20:00:38.699Z,82.50
2018-01-20T20:03:06.179Z,82.40
2018-01-20T20:05:33.610Z,81.10
2018-01-20T20:08:01.890Z,81.50
2018-01-20T20:10:29.342Z,80.80
2018-01-20T20:12:57.228Z,80.70
2018-01-20T20:15:25.487Z,81.30
2018-01-20T20:17:53.350Z,80.50
2018-01-20T20:20:20.822Z,81.20
2018-01-20T20:22:49.066Z,81.40
2018-01-20T20:25:16.543Z,81.30
2018-01-20T20:27:44.019Z,81.60
2018-01-20T20:30:11.498Z,81.60
2018-01-20T20:32:38.988Z,81.90
2018-01-20T20:35:06.458Z,81.70
2018-01-20T20:37:33.936Z,81.80
2018-01-20T20:40:02.122Z,81.70
2018-01-20T20:42:29.624Z,81.70
2018-01-20T20:44:57.117Z,81.70
2018-01-20T20:47:24.644Z,81.30
2018-01-20T20:49:52.076Z,81.20
2018-01-20T20:52:19.514Z,81.80
2018-01-20T20:54:47.011Z,82.00
2018-01-20T20:57:14.515Z,81.80
2018-01-20T20:59:42.765Z,81.40
2018-01-20T21:02:10.238Z,81.40
2018-01-20T21:04:38.486Z,81.10
2018-01-20T21:07:05.923Z,80.60
2018-01-20T21:09:33.404Z,80.90
2018-01-20T21:12:01.230Z,80.60
2018-01-20T21:14:28.671Z,80.90
2018-01-20T21:16:56.503Z,81.90
2018-01-20T21:19:24.741Z,82.80
2018-01-20T21:21:52.170Z,82.60
2018-01-20T21:24:19.668Z,82.80
2018-01-20T21:26:47.155Z,82.50
2018-01-20T21:29:14.642Z,82.80
2018-01-20T21:31:42.134Z,82.40
2018-01-20T21:34:09.616Z,82.50
2018-01-20T21:36:37.086Z,82.40
2018-01-20T21:39:05.332Z,82.30
2018-01-20T21:41:32.818Z,82.10
2018-01-20T21:44:01.123Z,81.80
2018-01-20T21:46:28.570Z,81.70
2018-01-20T21:48:56.023Z,81.30
2018-01-20T21:51:23.507Z,81.00
2018-01-20T21:53:51.021Z,80.90
2018-01-20T21:56:18.535Z,81.00
2018-01-20T21:58:46.012Z,80.70
2018-01-20T22:01:13.493Z,80.90
2018-01-20T22:03:41.693Z,81.00
2018-01-20T22:06:09.245Z,96.10
2018-01-20T22:08:36.726Z,80.30
2018-01-20T22:11:04.245Z,86.90
2018-01-20T22:13:31.836Z,95.50
2018-01-20T22:15:59.343Z,93.80
2018-01-20T22:18:26.777Z,94.50
2018-01-20T22:20:54.514Z,80.70
2018-01-20T22:23:22.799Z,80.50
2018-01-20T22:25:50.230Z,80.40
2018-01-20T22:28:17.677Z,80.20
2018-01-20T22:30:45.119Z,80.40
2018-01-20T22:33:13.319Z,80.30
2018-01-20T22:35:40.763Z,80.20
2018-01-20T22:38:09.016Z,80.20
2018-01-20T22:40:36.542Z,80.00
2018-01-20T22:43:03.969Z,80.10
2018-01-20T22:45:31.452Z,80.00
2018-01-20T22:47:58.890Z,79.90
2018-01-20T22:50:26.366Z,80.10
2018-01-20T22:52:53.803Z,80.30
2018-01-20T22:55:21.239Z,80.30
2018-01-20T22:57:48.683Z,80.30
2018-01-20T23:00:16.166Z,80.30
2018-01-20T23:02:43.602Z,80.30
2018-01-20T23:05:11.847Z,80.30
2018-01-20T23:07:39.276Z,89.30
2018-01-20T23:10:06.791Z,79.50
2018-01-20T23:12:35.007Z,80.20
2018-01-20T23:15:02.898Z,79.50
2018-01-20T23:17:30.377Z,89.60
2018-01-20T23:19:58.190Z,79.20
2018-01-20T23:22:25.644Z,80.30
2018-01-20T23:24:53.088Z,80.50
2018-01-20T23:27:20.581Z,79.70
2018-01-20T23:29:48.066Z,80.40
2018-01-20T23:32:15.498Z,80.60
2018-01-20T23:34:42.972Z,79.70
2018-01-20T23:37:10.445Z,80.30
2018-01-20T23:39:38.705Z,80.40
2018-01-20T23:42:06.138Z,80.30
2018-01-20T23:44:33.580Z,80.40
2018-01-20T23:47:01.081Z,80.30
2018-01-20T23:49:28.511Z,80.10
2018-01-20T23:51:55.997Z,80.20
2018-01-20T23:54:24.208Z,79.90
2018-01-20T23:56:51.650Z,79.70
2018-01-20T23:59:19.091Z,80.20
